Time;durP1;ratioP1;P1;durP2;ratioP2;P2;SDS_P1;SDS_P2;PMS_P1;PMS_P2;Temp;Humidity;BMP_temperature;BMP_pressure;BME280_temperature;BME280_humidity;BME280_pressure;Samples;Min_cycle;Max_cycle;Signal;HPM_P1;HPM_P2
2023/08/15 00:02:01;;;;;;;0.10;0.10;;;14.90;52.30;;;;;;5072226;28;20195;-60
2023/08/15 00:04:32;;;;;;;0.10;0.10;;;14.90;52.30;;;;;;5073078;28;20328;-61
2023/08/15 00:07:03;;;;;;;0.10;0.10;;;14.90;52.30;;;;;;5071709;28;20254;-59
2023/08/15 00:09:35;;;;;;;0.10;0.10;;;14.90;52.30;;;;;;5073123;28;20206;-62
2023/08/15 00:12:06;;;;;;;0.00;0.00;;;14.90;52.20;;;;;;5073358;28;20261;-59
2023/08/15 00:14:37;;;;;;;0.10;0.10;;;14.90;52.30;;;;;;5072504;28;20202;-60
2023/08/15 00:17:08;;;;;;;0.10;0.10;;;15.00;52.30;;;;;;5073437;28;20214;-61
2023/08/15 00:19:38;;;;;;;0.20;0.20;;;15.00;52.30;;;;;;5073065;28;20331;-61
2023/08/15 00:22:09;;;;;;;0.10;0.10;;;15.00;52.30;;;;;;5073275;28;20195;-59
2023/08/15 00:24:41;;;;;;;0.10;0.10;;;15.00;52.30;;;;;;5072688;28;20217;-62
2023/08/15 00:27:12;;;;;;;0.10;0.10;;;15.10;52.50;;;;;;5072383;28;20268;-59
2023/08/15 00:29:43;;;;;;;0.10;0.10;;;15.10;52.70;;;;;;5072142;28;20202;-60
2023/08/15 00:32:13;;;;;;;0.00;0.00;;;15.10;52.70;;;;;;5073067;28;20195;-60
2023/08/15 00:34:44;;;;;;;0.10;0.10;;;15.20;52.60;;;;;;5071803;28;20195;-62
2023/08/15 00:37:15;;;;;;;0.10;0.10;;;15.20;52.50;;;;;;5072125;28;20254;-60
2023/08/15 00:39:47;;;;;;;0.10;0.10;;;15.20;52.40;;;;;;5070095;28;20222;-60
2023/08/15 00:42:18;;;;;;;0.10;0.10;;;15.20;52.40;;;;;;5052188;28;20200;-60
2023/08/15 00:44:48;;;;;;;0.00;0.00;;;15.30;52.30;;;;;;5052336;28;20196;-61
2023/08/15 00:47:20;;;;;;;0.00;0.00;;;15.30;52.30;;;;;;5063708;28;20234;-60
2023/08/15 00:49:52;;;;;;;0.10;0.10;;;15.30;52.20;;;;;;5072218;28;20205;-59
2023/08/15 00:52:22;;;;;;;0.00;0.00;;;15.30;52.20;;;;;;5071072;28;20222;-62
2023/08/15 00:54:56;;;;;;;0.00;0.00;;;15.30;52.20;;;;;;5072211;28;20610;-60
2023/08/15 00:57:27;;;;;;;0.10;0.10;;;15.40;52.20;;;;;;5071887;28;20248;-60
2023/08/15 00:59:58;;;;;;;0.10;0.10;;;15.40;52.30;;;;;;5071375;28;20231;-62
2023/08/15 01:02:28;;;;;;;0.10;0.10;;;15.40;52.20;;;;;;5072113;28;20198;-61
2023/08/15 01:04:59;;;;;;;0.10;0.10;;;15.40;52.00;;;;;;5072039;28;20199;-61
2023/08/15 01:07:30;;;;;;;0.08;0.08;;;15.40;51.90;;;;;;5071550;28;20691;-62
2023/08/15 01:10:02;;;;;;;0.10;0.10;;;15.40;51.90;;;;;;5071870;28;20240;-61
2023/08/15 01:12:38;;;;;;;0.10;0.10;;;15.50;51.90;;;;;;5071617;28;20465;-60
2023/08/15 01:15:11;;;;;;;0.10;0.10;;;15.50;52.00;;;;;;5071294;28;20535;-63
2023/08/15 01:17:47;;;;;;;0.00;0.00;;;15.50;51.80;;;;;;5071480;28;20727;-61
2023/08/15 01:20:23;;;;;;;0.10;0.10;;;15.50;51.80;;;;;;5071047;28;20218;-62
2023/08/15 01:22:58;;;;;;;0.10;0.10;;;15.60;51.80;;;;;;5071386;28;20198;-62
2023/08/15 01:25:34;;;;;;;0.10;0.10;;;15.60;51.80;;;;;;5071974;28;20202;-62
2023/08/15 01:28:04;;;;;;;0.10;0.10;;;15.60;51.70;;;;;;5071236;28;20641;-60
2023/08/15 01:30:35;;;;;;;0.10;0.10;;;15.60;51.70;;;;;;5071310;28;20198;-60
2023/08/15 01:33:12;;;;;;;0.10;0.10;;;15.60;51.70;;;;;;5071325;28;20199;-60
2023/08/15 01:35:46;;;;;;;0.10;0.10;;;15.60;51.70;;;;;;5071548;28;20209;-60
2023/08/15 01:38:27;;;;;;;0.10;0.10;;;15.60;51.50;;;;;;5070869;28;20207;-60
2023/08/15 01:41:05;;;;;;;0.10;0.10;;;15.70;51.60;;;;;;5071191;28;20202;-61
2023/08/15 01:43:39;;;;;;;0.10;0.10;;;15.70;51.50;;;;;;5070967;28;20277;-62
2023/08/15 01:46:11;;;;;;;0.10;0.10;;;15.70;51.30;;;;;;5071372;28;20577;-62
2023/08/15 01:48:43;;;;;;;0.10;0.10;;;15.70;51.20;;;;;;5070551;28;20662;-60
2023/08/15 01:51:14;;;;;;;0.10;0.10;;;15.70;51.20;;;;;;5070731;28;20205;-63
2023/08/15 01:53:44;;;;;;;0.05;0.05;;;15.70;51.20;;;;;;5071377;28;20202;-62
2023/08/15 01:56:17;;;;;;;0.10;0.10;;;15.70;51.10;;;;;;5070717;28;20205;-60
2023/08/15 01:58:48;;;;;;;0.03;0.03;;;15.70;51.10;;;;;;5071114;28;20218;-63
2023/08/15 02:01:18;;;;;;;0.10;0.10;;;15.80;51.10;;;;;;5071934;28;20202;-60
2023/08/15 02:03:49;;;;;;;0.00;0.00;;;15.80;51.00;;;;;;5068761;28;20194;-63
2023/08/15 02:06:19;;;;;;;0.10;0.10;;;15.80;50.90;;;;;;5063521;28;20234;-63
2023/08/15 02:08:50;;;;;;;0.10;0.10;;;15.80;50.90;;;;;;5070359;28;20195;-62
2023/08/15 02:11:22;;;;;;;0.03;0.03;;;15.80;50.90;;;;;;5071213;28;20536;-60
2023/08/15 02:13:54;;;;;;;0.10;0.10;;;15.80;50.80;;;;;;5071109;28;20198;-62
2023/08/15 02:16:24;;;;;;;0.10;0.10;;;15.80;50.80;;;;;;5071086;28;20211;-63
2023/08/15 02:18:55;;;;;;;0.10;0.10;;;15.80;50.80;;;;;;5070805;28;20229;-61
2023/08/15 02:21:25;;;;;;;0.00;0.00;;;15.80;50.80;;;;;;5070196;28;20191;-61
2023/08/15 02:23:56;;;;;;;0.10;0.10;;;15.80;50.80;;;;;;5070984;28;20226;-62
2023/08/15 02:26:29;;;;;;;0.10;0.10;;;15.80;51.40;;;;;;5070109;28;20226;-61
2023/08/15 02:28:59;;;;;;;0.05;0.05;;;15.90;50.70;;;;;;5071115;28;20199;-62
2023/08/15 02:31:31;;;;;;;0.10;0.10;;;15.90;50.70;;;;;;5074279;28;20655;-62
2023/08/15 02:34:02;;;;;;;0.08;0.08;;;15.90;50.70;;;;;;5074924;28;20199;-60
2023/08/15 02:36:32;;;;;;;0.00;0.00;;;15.90;50.80;;;;;;5074798;28;20211;-62
2023/08/15 02:39:03;;;;;;;0.03;0.03;;;15.90;50.90;;;;;;5075358;28;20233;-61
2023/08/15 02:41:35;;;;;;;0.00;0.00;;;16.00;50.90;;;;;;5073092;28;20274;-61
2023/08/15 02:44:06;;;;;;;0.10;0.10;;;15.90;50.80;;;;;;5054221;28;20246;-61
2023/08/15 02:46:37;;;;;;;0.10;0.10;;;16.00;50.90;;;;;;5060224;28;20202;-62
2023/08/15 02:49:08;;;;;;;0.10;0.10;;;16.00;50.90;;;;;;5074908;28;20210;-62
2023/08/15 02:51:39;;;;;;;0.10;0.10;;;16.00;51.00;;;;;;5074120;28;20231;-62
2023/08/15 02:54:09;;;;;;;0.05;0.05;;;16.00;51.00;;;;;;5074391;28;20206;-60
2023/08/15 02:56:42;;;;;;;0.10;0.10;;;16.00;51.00;;;;;;5073895;28;20222;-63
2023/08/15 02:59:12;;;;;;;0.10;0.10;;;16.00;51.00;;;;;;5074168;28;20215;-60
2023/08/15 03:01:43;;;;;;;0.00;0.00;;;16.00;51.00;;;;;;5074905;28;20202;-60
2023/08/15 03:04:14;;;;;;;0.10;0.10;;;16.00;51.00;;;;;;5073904;28;20207;-61
2023/08/15 03:06:44;;;;;;;0.10;0.10;;;16.00;51.00;;;;;;5073890;28;20252;-62
2023/08/15 03:09:16;;;;;;;0.10;0.10;;;16.10;51.00;;;;;;5073942;28;21493;-62
2023/08/15 03:11:49;;;;;;;0.10;0.10;;;16.10;51.00;;;;;;5074478;28;20292;-61
2023/08/15 03:14:19;;;;;;;0.03;0.03;;;16.10;51.10;;;;;;5078759;28;20618;-61
2023/08/15 03:16:50;;;;;;;0.10;0.10;;;16.10;51.20;;;;;;5094381;28;20268;-61
2023/08/15 03:19:21;;;;;;;0.10;0.10;;;16.20;51.20;;;;;;5094493;28;20221;-60
2023/08/15 03:21:51;;;;;;;0.10;0.10;;;16.20;51.20;;;;;;5094322;28;20201;-60
2023/08/15 03:24:22;;;;;;;0.10;0.10;;;16.20;51.20;;;;;;5079931;28;20203;-60
2023/08/15 03:26:54;;;;;;;0.10;0.10;;;16.20;51.20;;;;;;5074261;28;20223;-60
2023/08/15 03:29:25;;;;;;;0.00;0.00;;;16.20;51.20;;;;;;5074159;28;20252;-60
2023/08/15 03:31:57;;;;;;;0.10;0.10;;;16.30;51.30;;;;;;5074087;28;20202;-61
2023/08/15 03:34:28;;;;;;;0.10;0.10;;;16.30;51.30;;;;;;5074031;28;20662;-62
2023/08/15 03:36:59;;;;;;;0.10;0.10;;;16.30;51.30;;;;;;5073775;28;20230;-63
2023/08/15 03:39:30;;;;;;;0.10;0.10;;;16.30;51.30;;;;;;5074076;28;20222;-60
2023/08/15 03:42:03;;;;;;;0.10;0.10;;;16.30;51.20;;;;;;5071990;28;20221;-62
2023/08/15 03:44:34;;;;;;;0.05;0.05;;;16.30;51.20;;;;;;5074096;28;20206;-61
2023/08/15 03:47:05;;;;;;;0.10;0.10;;;16.30;51.10;;;;;;5073959;28;20227;-61
2023/08/15 03:49:35;;;;;;;0.00;0.00;;;16.40;51.10;;;;;;5073873;28;20198;-62
2023/08/15 03:52:06;;;;;;;0.05;0.05;;;16.40;51.20;;;;;;5073197;28;20538;-61
2023/08/15 03:54:37;;;;;;;0.03;0.03;;;16.40;51.10;;;;;;5073312;28;20221;-63
2023/08/15 03:57:09;;;;;;;0.10;0.10;;;16.40;51.10;;;;;;5073283;28;20215;-62
2023/08/15 03:59:40;;;;;;;0.10;0.10;;;16.40;51.00;;;;;;5073490;28;20214;-60
2023/08/15 04:02:11;;;;;;;0.10;0.10;;;16.50;51.00;;;;;;5073717;28;20643;-61
2023/08/15 04:04:41;;;;;;;0.10;0.10;;;16.50;51.10;;;;;;5073777;28;20210;-62
2023/08/15 04:07:12;;;;;;;0.00;0.00;;;16.50;51.10;;;;;;5073391;28;20226;-62
2023/08/15 04:09:42;;;;;;;0.10;0.10;;;16.50;51.10;;;;;;5073482;28;20583;-62
2023/08/15 04:12:15;;;;;;;0.10;0.10;;;16.50;51.00;;;;;;5073061;28;20681;-63
2023/08/15 04:14:45;;;;;;;0.10;0.10;;;16.60;51.10;;;;;;5073247;28;20698;-62
2023/08/15 04:17:16;;;;;;;0.08;0.08;;;16.60;51.10;;;;;;5073174;28;20233;-62
2023/08/15 04:19:47;;;;;;;0.10;0.10;;;16.60;51.10;;;;;;5072834;28;20245;-61
2023/08/15 04:22:17;;;;;;;0.10;0.10;;;16.60;51.00;;;;;;5072705;28;20646;-60
2023/08/15 04:24:48;;;;;;;0.10;0.10;;;16.60;50.90;;;;;;5073683;28;20202;-62
2023/08/15 04:27:20;;;;;;;0.10;0.10;;;16.60;50.50;;;;;;5073324;28;20268;-62
2023/08/15 04:29:51;;;;;;;0.10;0.10;;;16.70;50.50;;;;;;5073165;28;20205;-61
2023/08/15 04:32:22;;;;;;;0.00;0.00;;;16.70;50.60;;;;;;5072721;28;20211;-61
2023/08/15 04:34:52;;;;;;;0.10;0.10;;;16.70;50.60;;;;;;5067447;28;20396;-61
2023/08/15 04:37:23;;;;;;;0.10;0.10;;;16.70;50.50;;;;;;5052808;28;20628;-62
2023/08/15 04:39:54;;;;;;;0.08;0.08;;;16.80;50.50;;;;;;5052947;28;20230;-60
2023/08/15 04:42:26;;;;;;;0.10;0.10;;;16.80;50.50;;;;;;5065414;28;20542;-61
2023/08/15 04:44:57;;;;;;;0.10;0.10;;;16.80;50.50;;;;;;5072412;28;20194;-61
2023/08/15 04:47:27;;;;;;;0.08;0.08;;;16.80;50.50;;;;;;5072448;28;20713;-61
2023/08/15 04:49:58;;;;;;;0.00;0.00;;;16.90;50.50;;;;;;5072571;28;20195;-61
2023/08/15 04:52:29;;;;;;;0.00;0.00;;;16.90;50.60;;;;;;5071994;28;20190;-61
2023/08/15 04:55:00;;;;;;;0.00;0.00;;;16.90;50.50;;;;;;5072610;28;20587;-61
2023/08/15 04:57:32;;;;;;;0.05;0.05;;;16.90;50.30;;;;;;5072607;28;20221;-61
2023/08/15 05:00:03;;;;;;;0.00;0.00;;;17.00;50.40;;;;;;5072551;28;20237;-61
2023/08/15 05:02:34;;;;;;;0.00;0.00;;;17.00;50.40;;;;;;5072887;28;20205;-61
2023/08/15 05:05:05;;;;;;;0.03;0.03;;;17.00;50.30;;;;;;5072324;28;20194;-61
2023/08/15 05:07:36;;;;;;;0.10;0.10;;;17.00;50.30;;;;;;5071742;28;20250;-61
2023/08/15 05:10:07;;;;;;;0.00;0.00;;;17.00;50.30;;;;;;5072458;28;20195;-61
2023/08/15 05:12:40;;;;;;;0.08;0.08;;;17.00;50.30;;;;;;5072993;28;20209;-61
2023/08/15 05:15:11;;;;;;;0.00;0.00;;;17.00;50.20;;;;;;5072155;28;20201;-60
2023/08/15 05:17:43;;;;;;;0.00;0.00;;;17.10;50.30;;;;;;5072003;28;20215;-61
2023/08/15 05:20:15;;;;;;;0.03;0.03;;;17.10;50.30;;;;;;5071907;28;20245;-61
2023/08/15 05:22:46;;;;;;;0.00;0.00;;;17.10;50.40;;;;;;5071618;28;20203;-61
2023/08/15 05:25:17;;;;;;;0.10;0.10;;;17.10;50.50;;;;;;5072635;28;20199;-60
2023/08/15 05:27:51;;;;;;;0.00;0.00;;;17.10;50.60;;;;;;5072156;28;20221;-61
2023/08/15 05:30:21;;;;;;;0.10;0.10;;;17.10;50.50;;;;;;5072050;28;20226;-60
2023/08/15 05:32:52;;;;;;;0.00;0.00;;;17.10;50.50;;;;;;5071951;28;20202;-60
2023/08/15 05:35:23;;;;;;;0.00;0.00;;;17.10;50.50;;;;;;5071438;28;20187;-60
2023/08/15 05:37:53;;;;;;;0.00;0.00;;;17.10;50.50;;;;;;5071227;28;20256;-61
2023/08/15 05:40:25;;;;;;;0.00;0.00;;;17.10;50.50;;;;;;5071602;28;20284;-61
2023/08/15 05:42:58;;;;;;;0.00;0.00;;;17.10;50.40;;;;;;5071688;28;20217;-61
2023/08/15 05:45:29;;;;;;;0.00;0.00;;;17.10;50.50;;;;;;5071904;28;20195;-61
2023/08/15 05:48:00;;;;;;;0.10;0.10;;;17.10;50.50;;;;;;5071182;28;20225;-61
2023/08/15 05:50:31;;;;;;;0.00;0.00;;;17.10;50.40;;;;;;5071763;28;20203;-60
2023/08/15 05:53:01;;;;;;;0.10;0.10;;;17.10;50.30;;;;;;5071230;28;20201;-61
2023/08/15 05:55:32;;;;;;;0.10;0.10;;;17.10;50.30;;;;;;5071519;28;20253;-61
2023/08/15 05:58:04;;;;;;;0.00;0.00;;;17.10;50.40;;;;;;5071574;28;20215;-61
2023/08/15 06:00:37;;;;;;;0.10;0.10;;;17.10;50.40;;;;;;5071531;28;20230;-61
2023/08/15 06:03:08;;;;;;;0.10;0.10;;;17.10;50.40;;;;;;5071675;28;20312;-61
2023/08/15 06:05:39;;;;;;;0.00;0.00;;;17.10;50.40;;;;;;5070227;28;20205;-62
2023/08/15 06:08:09;;;;;;;0.00;0.00;;;17.10;50.30;;;;;;5071006;28;20723;-61
2023/08/15 06:10:40;;;;;;;0.10;0.10;;;17.10;50.30;;;;;;5071488;28;20206;-61
2023/08/15 06:13:12;;;;;;;0.00;0.00;;;17.10;50.30;;;;;;5071601;28;20650;-62
2023/08/15 06:15:43;;;;;;;0.00;0.00;;;17.10;50.30;;;;;;5071369;28;20198;-61
2023/08/15 06:18:14;;;;;;;0.00;0.00;;;17.00;50.30;;;;;;5071673;28;20210;-61
2023/08/15 06:20:46;;;;;;;0.08;0.08;;;17.00;50.30;;;;;;5071647;28;20226;-60
2023/08/15 06:23:16;;;;;;;0.00;0.00;;;17.00;50.30;;;;;;5071705;28;20206;-61
2023/08/15 06:25:47;;;;;;;0.00;0.00;;;17.00;50.40;;;;;;5071448;28;20225;-60
2023/08/15 06:28:20;;;;;;;0.10;0.10;;;17.00;50.50;;;;;;5071393;28;20218;-62
2023/08/15 06:30:51;;;;;;;0.00;0.00;;;17.00;50.50;;;;;;5071332;28;20556;-62
2023/08/15 06:33:21;;;;;;;0.10;0.10;;;17.00;50.50;;;;;;5070998;28;20187;-61
2023/08/15 06:35:52;;;;;;;0.00;0.00;;;17.00;50.50;;;;;;5070714;28;20214;-60
2023/08/15 06:38:23;;;;;;;0.00;0.00;;;17.00;50.50;;;;;;5052655;28;20211;-61
2023/08/15 06:40:53;;;;;;;0.00;0.00;;;17.00;50.50;;;;;;5049707;28;20250;-61
2023/08/15 06:43:26;;;;;;;0.03;0.03;;;17.00;50.50;;;;;;5051185;28;20192;-61
2023/08/15 06:45:56;;;;;;;0.10;0.10;;;17.00;50.50;;;;;;5050896;28;20247;-62
2023/08/15 06:48:27;;;;;;;0.10;0.10;;;16.90;50.40;;;;;;5050745;28;20199;-62
2023/08/15 06:50:59;;;;;;;0.00;0.00;;;16.90;50.40;;;;;;5051024;28;20729;-62
2023/08/15 06:53:30;;;;;;;0.00;0.00;;;16.90;50.30;;;;;;5058684;28;20546;-61
2023/08/15 06:56:01;;;;;;;0.00;0.00;;;16.90;50.30;;;;;;5070445;28;20198;-61
2023/08/15 06:58:33;;;;;;;0.10;0.10;;;16.90;50.30;;;;;;5071039;28;20195;-61
2023/08/15 07:01:05;;;;;;;0.10;0.10;;;16.80;50.20;;;;;;5071083;28;20231;-63
2023/08/15 07:03:36;;;;;;;0.10;0.10;;;16.80;50.20;;;;;;5071008;28;20221;-62
2023/08/15 07:06:07;;;;;;;0.08;0.08;;;16.80;50.30;;;;;;5070943;28;20611;-62
2023/08/15 07:08:38;;;;;;;0.10;0.10;;;16.80;50.30;;;;;;5070806;28;20194;-63
2023/08/15 07:11:08;;;;;;;0.10;0.10;;;16.80;50.30;;;;;;5070466;28;20198;-62
2023/08/15 07:13:41;;;;;;;0.10;0.10;;;16.80;50.40;;;;;;5071207;28;20203;-63
2023/08/15 07:16:12;;;;;;;0.00;0.00;;;16.80;50.40;;;;;;5071750;28;20199;-62
2023/08/15 07:18:42;;;;;;;0.05;0.05;;;16.70;50.40;;;;;;5074431;28;20199;-61
2023/08/15 07:21:13;;;;;;;0.08;0.08;;;16.70;50.40;;;;;;5074232;28;20227;-62
2023/08/15 07:23:43;;;;;;;0.10;0.10;;;16.70;50.40;;;;;;5074197;28;20203;-62
2023/08/15 07:26:14;;;;;;;0.00;0.00;;;16.70;50.30;;;;;;5073113;28;20884;-62
2023/08/15 07:28:47;;;;;;;0.10;0.10;;;16.70;50.30;;;;;;5074023;28;20231;-62
2023/08/15 07:31:17;;;;;;;0.08;0.08;;;16.70;50.30;;;;;;5074139;28;20205;-62
2023/08/15 07:33:48;;;;;;;0.05;0.05;;;16.60;50.30;;;;;;5074083;28;20194;-61
2023/08/15 07:36:18;;;;;;;0.10;0.10;;;16.60;50.30;;;;;;5073279;28;20617;-61
2023/08/15 07:38:49;;;;;;;0.10;0.10;;;16.60;50.30;;;;;;5073485;28;20195;-61
2023/08/15 07:41:20;;;;;;;0.00;0.00;;;16.60;50.30;;;;;;5073258;28;20227;-61
2023/08/15 07:43:52;;;;;;;0.08;0.08;;;16.60;50.30;;;;;;5073857;28;20718;-62
2023/08/15 07:46:23;;;;;;;0.10;0.10;;;16.60;50.40;;;;;;5074018;28;20207;-61
2023/08/15 07:48:54;;;;;;;0.10;0.10;;;16.60;50.40;;;;;;5074030;28;20195;-61
2023/08/15 07:51:25;;;;;;;0.00;0.00;;;16.60;50.40;;;;;;5073003;28;20191;-61
2023/08/15 07:53:55;;;;;;;0.00;0.00;;;16.50;50.40;;;;;;5073028;28;21003;-61
2023/08/15 07:56:26;;;;;;;0.00;0.00;;;16.50;50.40;;;;;;5073829;28;20865;-62
2023/08/15 07:58:59;;;;;;;0.10;0.10;;;16.50;50.40;;;;;;5073864;28;20194;-62
2023/08/15 08:01:29;;;;;;;0.03;0.03;;;16.50;50.40;;;;;;5073006;28;20683;-61
2023/08/15 08:04:00;;;;;;;0.00;0.00;;;16.50;50.40;;;;;;5073164;28;20259;-62
2023/08/15 08:06:31;;;;;;;0.00;0.00;;;16.50;50.40;;;;;;5073497;28;20226;-62
2023/08/15 08:09:04;;;;;;;0.10;0.10;;;16.40;50.40;;;;;;5072880;28;20205;-61
2023/08/15 08:11:35;;;;;;;0.10;0.10;;;16.40;50.40;;;;;;5073361;28;20209;-60
2023/08/15 08:14:08;;;;;;;0.00;0.00;;;16.40;50.30;;;;;;5073304;28;20195;-61
2023/08/15 08:16:39;;;;;;;0.10;0.10;;;16.40;50.40;;;;;;5072741;28;20215;-60
2023/08/15 08:19:09;;;;;;;0.10;0.10;;;16.40;50.40;;;;;;5073326;28;20199;-60
2023/08/15 08:21:40;;;;;;;0.10;0.10;;;16.40;50.50;;;;;;5073050;28;20222;-60
2023/08/15 08:24:10;;;;;;;0.00;0.00;;;16.40;50.50;;;;;;5072701;28;20567;-61
2023/08/15 08:26:41;;;;;;;0.00;0.00;;;16.30;50.40;;;;;;5073037;28;20336;-61
2023/08/15 08:29:14;;;;;;;0.08;0.08;;;16.30;50.50;;;;;;5072178;28;20195;-60
2023/08/15 08:31:44;;;;;;;0.10;0.10;;;16.30;50.50;;;;;;5072403;28;20256;-61
2023/08/15 08:34:15;;;;;;;0.10;0.10;;;16.30;50.50;;;;;;5073094;28;20191;-60
2023/08/15 08:36:46;;;;;;;0.03;0.03;;;16.30;50.60;;;;;;5072447;28;20298;-61
2023/08/15 08:39:16;;;;;;;0.10;0.10;;;16.30;50.60;;;;;;5060787;28;20198;-59
2023/08/15 08:41:47;;;;;;;0.10;0.10;;;16.30;50.70;;;;;;5053119;28;20291;-61
2023/08/15 08:44:22;;;;;;;0.05;0.05;;;16.30;50.70;;;;;;5052832;28;20218;-60
2023/08/15 08:46:52;;;;;;;0.10;0.10;;;16.30;50.60;;;;;;5052741;28;20218;-61
2023/08/15 08:49:26;;;;;;;0.05;0.05;;;16.30;50.70;;;;;;5052860;28;20203;-61
2023/08/15 08:51:58;;;;;;;0.00;0.00;;;16.20;50.60;;;;;;5053112;28;20655;-60
2023/08/15 08:54:29;;;;;;;0.10;0.10;;;16.20;50.60;;;;;;5068317;28;20245;-61
2023/08/15 08:57:01;;;;;;;0.08;0.08;;;16.20;50.60;;;;;;5072644;28;20716;-60
2023/08/15 08:59:35;;;;;;;0.10;0.10;;;16.20;50.70;;;;;;5072392;28;20550;-60
2023/08/15 09:02:07;;;;;;;0.10;0.10;;;16.20;50.70;;;;;;5072080;28;20230;-60
2023/08/15 09:04:38;;;;;;;0.03;0.03;;;16.20;50.70;;;;;;5068519;28;20191;-59
2023/08/15 09:07:08;;;;;;;0.10;0.10;;;16.20;50.80;;;;;;5072056;28;20238;-59
2023/08/15 09:09:39;;;;;;;0.10;0.10;;;16.10;50.70;;;;;;5071490;28;20190;-59
2023/08/15 09:12:10;;;;;;;0.10;0.10;;;16.10;50.70;;;;;;5071986;28;20214;-59
2023/08/15 09:14:45;;;;;;;0.03;0.03;;;16.10;50.70;;;;;;5071994;28;20244;-59
2023/08/15 09:17:16;;;;;;;0.00;0.00;;;16.10;50.80;;;;;;5070643;28;20221;-59
2023/08/15 09:19:46;;;;;;;0.10;0.10;;;16.10;50.80;;;;;;5071733;28;20207;-59
2023/08/15 09:22:24;;;;;;;0.10;0.10;;;16.10;50.80;;;;;;5071268;28;20214;-60
2023/08/15 09:24:55;;;;;;;0.00;0.00;;;16.10;50.80;;;;;;5072296;28;20605;-60
2023/08/15 09:27:26;;;;;;;0.00;0.00;;;16.00;50.80;;;;;;5070143;28;20217;-59
2023/08/15 09:29:58;;;;;;;0.10;0.10;;;16.00;50.80;;;;;;5071458;28;20218;-59
2023/08/15 09:32:30;;;;;;;0.10;0.10;;;16.10;50.80;;;;;;5070888;28;20221;-59
2023/08/15 09:35:00;;;;;;;0.10;0.10;;;16.10;50.80;;;;;;5071438;28;20752;-59
2023/08/15 09:37:31;;;;;;;0.03;0.03;;;16.00;50.80;;;;;;5071457;28;20210;-59
2023/08/15 09:40:04;;;;;;;0.00;0.00;;;16.00;50.80;;;;;;5069812;28;20234;-59
2023/08/15 09:42:35;;;;;;;0.10;0.10;;;16.00;50.80;;;;;;5071223;28;20309;-59
2023/08/15 09:45:09;;;;;;;0.10;0.10;;;16.00;50.80;;;;;;5070525;28;20201;-59
2023/08/15 09:47:41;;;;;;;0.10;0.10;;;16.00;50.80;;;;;;5071003;28;20642;-59
2023/08/15 09:50:12;;;;;;;0.00;0.00;;;16.00;50.90;;;;;;5068564;28;20234;-60
2023/08/15 09:52:45;;;;;;;0.10;0.10;;;15.90;50.80;;;;;;5070859;28;20563;-59
2023/08/15 09:55:16;;;;;;;0.10;0.10;;;16.00;50.90;;;;;;5070680;28;20198;-59
2023/08/15 09:57:47;;;;;;;0.10;0.10;;;16.00;50.90;;;;;;5070242;28;20222;-59
2023/08/15 10:00:20;;;;;;;0.10;0.10;;;15.90;50.80;;;;;;5050993;28;20407;-59
2023/08/15 10:02:57;;;;;;;0.10;0.10;;;15.90;50.80;;;;;;5050845;28;20223;-59
2023/08/15 10:05:32;;;;;;;0.10;0.10;;;15.90;50.80;;;;;;5050425;28;20202;-59
2023/08/15 10:08:03;;;;;;;0.10;0.10;;;15.90;50.80;;;;;;5049981;28;20214;-59
2023/08/15 10:10:35;;;;;;;0.10;0.10;;;15.90;50.80;;;;;;5051550;28;20451;-59
2023/08/15 10:13:07;;;;;;;0.00;0.00;;;15.90;50.90;;;;;;5051174;28;20599;-59
2023/08/15 10:15:40;;;;;;;0.00;0.00;;;15.90;50.90;;;;;;5051295;28;20466;-59
2023/08/15 10:18:11;;;;;;;0.10;0.10;;;15.80;50.90;;;;;;5069654;28;20222;-59
2023/08/15 10:20:42;;;;;;;0.00;0.00;;;15.80;50.90;;;;;;5070953;28;20179;-59
2023/08/15 10:23:12;;;;;;;0.10;0.10;;;15.90;51.00;;;;;;5069587;28;20233;-59
2023/08/15 10:25:43;;;;;;;0.10;0.10;;;15.80;50.90;;;;;;5071233;28;20248;-59
2023/08/15 10:28:14;;;;;;;0.10;0.10;;;15.80;51.00;;;;;;5070721;28;20705;-59
2023/08/15 10:30:48;;;;;;;0.10;0.10;;;15.80;50.90;;;;;;5071172;28;20199;-59
2023/08/15 10:33:20;;;;;;;0.10;0.10;;;15.80;51.00;;;;;;5071121;28;20213;-59
2023/08/15 10:36:08;;;;;;;0.10;0.10;;;15.80;51.00;;;;;;5070506;28;20562;-59
2023/08/15 10:38:43;;;;;;;0.00;0.00;;;15.80;51.00;;;;;;5069767;28;20191;-59
2023/08/15 10:41:17;;;;;;;0.10;0.10;;;15.80;51.00;;;;;;5085549;28;20646;-59
2023/08/15 10:43:52;;;;;;;0.10;0.10;;;15.80;51.00;;;;;;5049785;28;20269;-59
2023/08/15 10:46:29;;;;;;;0.10;0.10;;;15.70;51.00;;;;;;5050273;28;20223;-60
2023/08/15 10:49:03;;;;;;;0.10;0.10;;;15.70;51.00;;;;;;5052016;28;20609;-59
2023/08/15 10:51:35;;;;;;;0.10;0.10;;;15.70;51.00;;;;;;5071721;28;20248;-59
2023/08/15 10:54:07;;;;;;;0.10;0.10;;;15.70;51.00;;;;;;5074303;28;20202;-59
2023/08/15 10:56:39;;;;;;;0.10;0.10;;;15.70;51.00;;;;;;5074340;28;20215;-59
2023/08/15 10:59:11;;;;;;;0.00;0.00;;;15.70;51.00;;;;;;5073762;28;20712;-59
2023/08/15 11:01:44;;;;;;;0.10;0.10;;;15.70;51.00;;;;;;5074904;28;20586;-59
2023/08/15 11:04:18;;;;;;;0.10;0.10;;;15.60;51.00;;;;;;5073973;28;20278;-59
2023/08/15 11:06:52;;;;;;;0.10;0.10;;;15.60;51.00;;;;;;5074086;28;20245;-59
2023/08/15 11:09:29;;;;;;;0.10;0.10;;;15.70;51.10;;;;;;5073194;28;20273;-59
2023/08/15 11:12:07;;;;;;;0.10;0.10;;;15.70;51.10;;;;;;5073774;28;20225;-59
2023/08/15 11:14:38;;;;;;;0.10;0.10;;;15.60;51.00;;;;;;5073391;28;20191;-59
2023/08/15 11:17:11;;;;;;;0.10;0.10;;;15.60;51.00;;;;;;5073527;28;20241;-59
2023/08/15 11:19:42;;;;;;;0.10;0.10;;;15.60;51.00;;;;;;5073273;28;20600;-59
2023/08/15 11:22:13;;;;;;;0.00;0.00;;;15.60;51.10;;;;;;5073820;28;20233;-59
2023/08/15 11:24:44;;;;;;;0.10;0.10;;;15.60;51.10;;;;;;5073802;28;20358;-59
2023/08/15 11:27:14;;;;;;;0.10;0.10;;;15.60;51.10;;;;;;5073000;28;20701;-59
2023/08/15 11:29:45;;;;;;;0.10;0.10;;;15.60;51.10;;;;;;5073299;28;20191;-59
2023/08/15 11:32:18;;;;;;;0.08;0.08;;;15.60;51.10;;;;;;5073738;28;20194;-59
2023/08/15 11:34:49;;;;;;;0.00;0.00;;;15.50;51.10;;;;;;5074237;28;20189;-59
2023/08/15 11:37:21;;;;;;;0.10;0.10;;;15.50;51.00;;;;;;5072615;28;20226;-59
2023/08/15 11:39:55;;;;;;;0.10;0.10;;;15.50;51.10;;;;;;5073513;28;20643;-59
2023/08/15 11:42:26;;;;;;;0.10;0.10;;;15.50;51.00;;;;;;5073182;28;20219;-59
2023/08/15 11:45:11;;;;;;;0.10;0.10;;;15.50;51.10;;;;;;5073367;28;20196;-59
2023/08/15 11:47:57;;;;;;;0.10;0.10;;;15.50;51.10;;;;;;5073355;28;20674;-60
2023/08/15 11:50:31;;;;;;;0.10;0.10;;;15.50;51.10;;;;;;5073053;28;20278;-59
2023/08/15 11:53:02;;;;;;;0.05;0.05;;;15.50;51.10;;;;;;5073623;28;20551;-59
2023/08/15 11:55:37;;;;;;;0.00;0.00;;;15.40;51.10;;;;;;5074011;28;20222;-58
2023/08/15 11:58:25;;;;;;;0.00;0.00;;;15.40;51.10;;;;;;5073309;28;20668;-60
2023/08/15 12:00:59;;;;;;;0.10;0.10;;;15.40;51.10;;;;;;5074222;28;20199;-60
2023/08/15 12:03:33;;;;;;;0.10;0.10;;;15.40;51.10;;;;;;5072483;28;20226;-60
2023/08/15 12:06:04;;;;;;;0.05;0.05;;;15.40;51.10;;;;;;5073507;28;20204;-59
2023/08/15 12:08:35;;;;;;;0.10;0.10;;;15.40;51.10;;;;;;5073657;28;20601;-60
2023/08/15 12:11:07;;;;;;;0.00;0.00;;;15.30;51.10;;;;;;5073534;28;20550;-59
2023/08/15 12:13:39;;;;;;;0.10;0.10;;;15.40;51.20;;;;;;5073542;28;20812;-60
2023/08/15 12:16:10;;;;;;;0.10;0.10;;;15.30;51.10;;;;;;5073560;28;20201;-58
2023/08/15 12:18:43;;;;;;;0.00;0.00;;;15.30;51.10;;;;;;5073524;28;20650;-57
2023/08/15 12:21:13;;;;;;;0.10;0.10;;;15.30;51.70;;;;;;5073259;28;20555;-58
2023/08/15 12:23:44;;;;;;;0.10;0.10;;;15.30;51.20;;;;;;5073101;28;20230;-58
2023/08/15 12:26:15;;;;;;;0.10;0.10;;;15.30;51.20;;;;;;5073572;28;20647;-57
2023/08/15 12:28:45;;;;;;;0.10;0.10;;;15.30;51.20;;;;;;5073467;28;20199;-59
2023/08/15 12:31:16;;;;;;;0.10;0.10;;;15.30;51.20;;;;;;5073815;28;20556;-59
2023/08/15 12:33:48;;;;;;;0.10;0.10;;;15.30;51.20;;;;;;5072173;28;20210;-59
2023/08/15 12:36:19;;;;;;;0.10;0.10;;;15.20;51.10;;;;;;5072442;28;20199;-60
2023/08/15 12:38:50;;;;;;;0.10;0.10;;;15.20;51.10;;;;;;5072535;28;20206;-60
2023/08/15 12:41:20;;;;;;;0.10;0.10;;;15.20;51.10;;;;;;5072831;28;20194;-60
2023/08/15 12:43:51;;;;;;;0.10;0.10;;;15.20;51.20;;;;;;5072892;28;20226;-60
2023/08/15 12:46:21;;;;;;;0.10;0.10;;;15.20;51.10;;;;;;5072881;28;20233;-59
2023/08/15 12:48:58;;;;;;;0.10;0.10;;;15.20;51.10;;;;;;5072786;28;20559;-59
2023/08/15 12:51:29;;;;;;;0.08;0.08;;;15.20;51.10;;;;;;5072786;28;20406;-59
2023/08/15 12:54:00;;;;;;;0.10;0.10;;;15.10;51.10;;;;;;5072523;28;20655;-58
2023/08/15 12:56:30;;;;;;;0.00;0.00;;;15.10;51.10;;;;;;5072197;28;20678;-58
2023/08/15 12:59:01;;;;;;;0.10;0.10;;;15.10;51.10;;;;;;5071810;28;20206;-58
2023/08/15 13:01:32;;;;;;;0.10;0.10;;;15.10;51.20;;;;;;5072199;28;20264;-61
2023/08/15 13:04:05;;;;;;;0.00;0.00;;;15.10;51.20;;;;;;5072274;28;20690;-60
2023/08/15 13:06:35;;;;;;;0.10;0.10;;;15.10;51.20;;;;;;5072034;28;20256;-55
2023/08/15 13:09:07;;;;;;;0.00;0.00;;;15.10;51.20;;;;;;5072015;28;20194;-57
2023/08/15 13:11:38;;;;;;;0.10;0.10;;;15.00;51.20;;;;;;5072116;28;20274;-58